Terminal Aerodrome Forecast
Issued by NWS

Home | Current Version | Previous Version | Text Only | Print | Product List | Glossary On
Versions: 1 2 3 4 5 6 7 8 9 10 11 12 13 14 15 16
000
FTUS41 KPHI 020500
TAFPNE
TAF
KPNE 020530Z 0206/0306 05004KT P6SM -RA SCT050 OVC120
      TEMPO 0207/0209 5SM RA BR BKN020 OVC050
     FM020900 06006KT 4SM -RA BR OVC020
      TEMPO 0210/0214 2SM RA BR BKN008 OVC020
     FM021700 07008KT P6SM BKN050
     FM030400 06003KT P6SM BKN025 OVC050=

USA.gov is the U.S. government's official web portal to all federal, state and local government web resources and services.